Aeroporto :
LOGIN :

Iscrizione | Disclaimer

   EN    FR    IT 

 










Sommario :    VFR   VFR Marginale   IFR   IFR Intensivo   IFR Molto Intensivo
Visibilità : 
Base nubi : 
>= 8 km
>= 3000ft
5 / 8 km
1000 / 3000 ft
1500m / 5 km
500 / 1000 ft
800 / 1500m
200 / 500 ft
< 800m
< 200 ft
Simboli :   Temporali  Nebbia  Neve Forte  Precipitazioni Forti  Vento > 20 kt
SIGMETs :   Varie  Temporali  Ghiacco  Turbolenza  Onda orograficha  Ceneri Vulcaniche







- Altitudine del aeroporto : 80 ft
- Codice IATA : LPL
- Carte del aeroporto


EGGP - Liverpool John Lennon

ULTIMO METAR :
  • 181620Z 11008KT 9999 FEW032 19/10 Q1024

METARs OBSOLETI :
  • 181550Z 11007KT 080V150 8000 SCT044 19/09 Q1024
  • 181520Z 11010KT 8000 SCT044 19/10 Q1024
  • 181450Z 12010KT 090V160 8000 SCT045 18/10 Q1024
  • 181420Z 11010KT 070V150 8000 SCT037 18/10 Q1024

TAF AMD TAF EGGP
Valido dal 18 a 13 ore il 19 a 12 ore UTC


181322Z 1813/1912 10007KT 8000 FEW035
PROB30
TEMPO 1813/1821 9999
PROB30 1821/1910 4000 BR
ATIS : +44 151 907 2000 (option 5 or ext 5150)
Met : +44 871 750 5150
Nessun NOTAM noto per questo aeroporto.



MetMap, La meteo Aeronautica in un colpo d'occhio ! - Copyright ORBIFLY Dicembre 2007 - Disclaimer

ORBIFLY MET'MAP TEAM :

Programmazione e sviluppo : Alexandra Zaïnal
Concezione e sviluppo : Baudouin d'Aumeries
Co-Programmazione e sviluppo : Marc-Olivier Méhu
Supporto tecnico e logistico : Manuel Goepfert
Aiuto per la traduzione : Arnaldo La Scala

Contatto : metmap@orbifly.com




FONTI E CREDITI :

   NOAA